Time;durP1;ratioP1;P1;durP2;ratioP2;P2;SDS_P1;SDS_P2;PMS_P1;PMS_P2;Temp;Humidity;BMP_temperature;BMP_pressure;BME280_temperature;BME280_humidity;BME280_pressure;Samples;Min_cycle;Max_cycle;Signal;HPM_P1;HPM_P2
2023/11/17 00:01:49;;;;;;;4.10;3.70;;;5.30;99.90;;;3.62;100.00;97075.44;4954446;28;20473;-75
2023/11/17 00:04:16;;;;;;;5.40;3.50;;;5.20;99.90;;;3.45;100.00;97049.03;4953535;28;20977;-77
2023/11/17 00:06:45;;;;;;;5.10;3.77;;;5.20;99.90;;;4.15;100.00;97149.03;4950352;28;20539;-76
2023/11/17 00:09:12;;;;;;;5.40;3.80;;;5.20;99.90;;;4.08;100.00;97147.13;4948894;28;20912;-75
2023/11/17 00:11:39;;;;;;;4.10;3.70;;;5.20;99.90;;;3.99;100.00;97139.44;4948568;28;20846;-77
2023/11/17 00:14:07;;;;;;;5.90;3.40;;;5.20;99.90;;;4.14;100.00;97153.53;4953486;28;20484;-76
2023/11/17 00:16:35;;;;;;;8.23;3.57;;;5.20;99.90;;;3.92;100.00;97147.41;4946732;28;20515;-76
2023/11/17 00:19:05;;;;;;;5.40;4.03;;;5.20;99.90;;;4.12;100.00;97160.91;4954663;28;20458;-74
2023/11/17 00:21:34;;;;;;;4.60;3.73;;;5.20;99.90;;;4.04;100.00;97171.78;4961063;28;20456;-72
2023/11/17 00:24:03;;;;;;;6.33;3.50;;;5.20;99.90;;;4.08;100.00;97173.84;4985776;28;20489;-75
2023/11/17 00:26:31;;;;;;;4.87;3.40;;;5.20;99.90;;;3.44;100.00;97094.66;4969918;28;20480;-73
2023/11/17 00:28:59;;;;;;;5.43;3.43;;;5.20;99.90;;;3.97;100.00;97185.91;4970938;28;20453;-76
2023/11/17 00:31:28;;;;;;;5.73;3.50;;;5.20;99.90;;;4.10;100.00;97192.38;4970082;28;20931;-73
2023/11/17 00:33:57;;;;;;;4.80;3.50;;;5.20;99.90;;;4.04;100.00;97193.16;4966175;28;20445;-75
2023/11/17 00:36:24;;;;;;;7.13;4.13;;;5.20;99.90;;;3.93;100.00;97206.03;4953406;28;20791;-74
2023/11/17 00:38:51;;;;;;;5.97;4.00;;;5.10;99.90;;;3.93;100.00;97211.38;4970762;29;20453;-73
2023/11/17 00:41:19;;;;;;;7.90;3.97;;;5.10;99.90;;;3.99;100.00;97224.97;4962962;28;20494;-76
2023/11/17 00:43:46;;;;;;;5.03;3.30;;;5.10;99.90;;;3.91;100.00;97221.44;4958196;28;20457;-77
2023/11/17 00:46:14;;;;;;;5.10;3.67;;;5.10;99.90;;;3.96;100.00;97235.03;4948030;28;20956;-77
2023/11/17 00:48:42;;;;;;;4.90;3.50;;;5.10;99.90;;;3.88;100.00;97240.53;4953953;28;20508;-73
2023/11/17 00:51:11;;;;;;;6.63;4.20;;;5.10;99.90;;;4.00;100.00;97231.97;4948738;28;20464;-76
2023/11/17 00:53:38;;;;;;;7.50;4.23;;;5.10;99.90;;;4.04;100.00;97251.97;4960849;28;20465;-77
2023/11/17 00:56:08;;;;;;;6.03;4.10;;;5.20;99.90;;;3.91;100.00;97258.00;4944551;28;20453;-78
2023/11/17 00:58:35;;;;;;;9.43;4.20;;;5.10;99.90;;;4.01;100.00;97265.69;4952288;28;20462;-79
2023/11/17 01:01:02;;;;;;;5.73;3.87;;;5.10;99.90;;;3.95;100.00;97265.47;4951733;28;20465;-79
2023/11/17 01:03:29;;;;;;;5.80;3.27;;;5.10;99.90;;;3.89;100.00;97284.94;4951147;28;20495;-76
2023/11/17 01:05:57;;;;;;;5.47;3.67;;;5.10;99.90;;;3.89;100.00;97300.97;4938015;28;20966;-78
2023/11/17 01:08:26;;;;;;;5.17;3.63;;;5.00;99.90;;;3.93;100.00;97307.59;4950591;28;20464;-78
2023/11/17 01:10:53;;;;;;;4.13;3.77;;;5.10;99.90;;;3.92;100.00;97311.28;4950833;28;20475;-74
2023/11/17 01:13:22;;;;;;;6.23;4.30;;;5.10;99.90;;;3.94;100.00;97330.63;4946631;28;20951;-77
2023/11/17 01:15:49;;;;;;;4.33;3.80;;;5.10;99.90;;;4.07;100.00;97334.47;4949739;28;20537;-77
2023/11/17 01:18:16;;;;;;;6.97;4.70;;;5.20;99.90;;;4.13;100.00;97349.72;4949248;28;20478;-77
2023/11/17 01:20:43;;;;;;;7.00;4.20;;;5.20;99.90;;;4.17;100.00;97352.84;4948054;28;21410;-76
2023/11/17 01:23:12;;;;;;;5.20;3.90;;;5.30;99.90;;;4.11;100.00;97360.63;4946046;29;21301;-76
2023/11/17 01:25:41;;;;;;;8.10;4.20;;;5.30;99.90;;;4.09;100.00;97364.50;4947030;29;20477;-77
2023/11/17 01:28:10;;;;;;;7.20;5.60;;;5.20;99.90;;;4.04;100.00;97374.94;4949106;28;20478;-77
2023/11/17 01:30:37;;;;;;;9.57;5.57;;;5.20;99.90;;;4.12;100.00;97380.16;4955916;28;20473;-77
2023/11/17 01:33:05;;;;;;;6.63;5.23;;;5.20;99.90;;;4.18;100.00;97383.94;4949717;28;20463;-74
2023/11/17 01:35:33;;;;;;;7.93;5.47;;;5.30;99.90;;;4.09;100.00;97399.25;4964337;28;20451;-79
2023/11/17 01:38:01;;;;;;;6.80;6.10;;;5.20;99.90;;;4.07;100.00;97398.63;4949325;28;20478;-80
2023/11/17 01:40:30;;;;;;;7.60;6.67;;;5.20;99.90;;;3.97;100.00;97409.63;4950674;28;20460;-76
2023/11/17 01:43:06;;;;;;;8.53;6.63;;;5.20;99.90;;;3.95;100.00;97412.47;4949510;28;20454;-75
2023/11/17 01:45:34;;;;;;;12.73;7.43;;;5.20;99.90;;;3.56;100.00;97341.50;4949574;28;20847;-75
2023/11/17 01:48:01;;;;;;;11.90;7.67;;;5.10;99.90;;;3.95;100.00;97433.88;4950103;28;20895;-76
2023/11/17 01:50:29;;;;;;;6.63;5.93;;;5.20;99.90;;;3.96;100.00;97446.22;4946908;29;20529;-77
2023/11/17 01:52:57;;;;;;;8.50;7.10;;;5.10;99.90;;;3.88;100.00;97446.31;4945606;28;20807;-77
2023/11/17 01:55:24;;;;;;;8.70;6.93;;;5.10;99.90;;;4.25;100.00;97446.34;4949291;28;20519;-78
2023/11/17 01:57:53;;;;;;;9.67;7.27;;;5.10;99.90;;;3.96;100.00;97451.56;4947148;28;20474;-74
2023/11/17 02:00:21;;;;;;;9.97;7.80;;;5.10;99.90;;;3.87;100.00;97475.91;4965703;28;21277;-76
2023/11/17 02:02:51;;;;;;;10.00;7.97;;;5.10;99.90;;;3.87;100.00;97484.75;4949297;28;20482;-76
2023/11/17 02:05:21;;;;;;;10.37;8.60;;;5.10;99.90;;;3.83;100.00;97483.44;4950099;28;21184;-75
2023/11/17 02:08:17;;;;;;;10.10;8.43;;;5.10;99.90;;;3.96;100.00;97493.50;4947647;28;20465;-77
2023/11/17 02:10:57;;;;;;;9.63;7.47;;;5.10;99.90;;;4.06;100.00;97498.56;4947820;29;20460;-76
2023/11/17 02:13:32;;;;;;;13.07;9.47;;;5.10;99.90;;;4.11;100.00;97498.81;4962659;28;20449;-72
2023/11/17 02:16:03;;;;;;;11.50;8.10;;;5.20;99.90;;;4.01;100.00;97507.13;4945082;28;20461;-75
2023/11/17 02:18:35;;;;;;;11.83;8.83;;;5.20;99.90;;;3.99;100.00;97524.38;4961736;28;20461;-72
2023/11/17 02:21:05;;;;;;;11.70;8.90;;;5.20;99.90;;;3.87;100.00;97500.81;4955242;28;20814;-75
2023/11/17 02:23:33;;;;;;;11.93;9.67;;;5.20;99.90;;;3.33;100.00;97430.59;4944784;28;20446;-77
2023/11/17 02:26:17;;;;;;;15.70;10.57;;;5.20;99.90;;;4.06;100.00;97536.00;4947069;28;20601;-79
2023/11/17 02:28:58;;;;;;;15.13;9.37;;;5.20;99.90;;;4.10;100.00;97539.94;4946427;28;20540;-75
2023/11/17 02:31:32;;;;;;;14.13;10.00;;;5.20;99.90;;;4.06;100.00;97549.38;4942590;28;20493;-77
2023/11/17 02:34:03;;;;;;;13.77;9.80;;;5.20;99.90;;;4.14;100.00;97546.56;4956444;28;20537;-76
2023/11/17 02:36:33;;;;;;;11.50;8.93;;;5.30;99.90;;;4.20;100.00;97556.53;4945410;28;20462;-74
2023/11/17 02:39:13;;;;;;;11.17;8.13;;;5.30;99.90;;;4.21;100.00;97560.88;4948517;28;20474;-74
2023/11/17 02:41:43;;;;;;;14.27;8.40;;;5.30;99.90;;;4.21;100.00;97568.06;4945848;28;20469;-76
2023/11/17 02:44:15;;;;;;;12.37;9.87;;;5.30;99.90;;;4.08;100.00;97566.03;4946093;28;21114;-74
2023/11/17 02:46:45;;;;;;;15.17;9.70;;;5.30;99.90;;;4.11;100.00;97576.38;4947105;28;20507;-75
2023/11/17 02:49:22;;;;;;;18.83;10.20;;;5.30;99.90;;;4.11;100.00;97589.72;4949235;28;20462;-74
2023/11/17 02:51:51;;;;;;;14.60;10.80;;;5.30;99.90;;;4.13;100.00;97593.03;4944579;29;20450;-76
2023/11/17 02:54:23;;;;;;;13.60;9.30;;;5.20;99.90;;;4.20;100.00;97593.97;4946270;28;20825;-75
2023/11/17 02:56:52;;;;;;;11.20;8.83;;;5.30;99.90;;;4.12;100.00;97610.09;4946245;28;20964;-76
2023/11/17 02:59:19;;;;;;;11.13;8.37;;;5.20;99.90;;;4.02;100.00;97604.19;4947333;28;20957;-74
2023/11/17 03:01:50;;;;;;;12.50;8.47;;;5.20;99.90;;;3.99;100.00;97608.09;4961980;28;20457;-75
2023/11/17 03:04:18;;;;;;;12.20;8.40;;;5.20;99.90;;;3.99;100.00;97623.28;4947281;28;20544;-74
2023/11/17 03:06:48;;;;;;;12.90;7.97;;;5.20;99.90;;;3.99;100.00;97612.59;4945087;28;20543;-75
2023/11/17 03:09:21;;;;;;;11.43;8.67;;;5.10;99.90;;;4.00;100.00;97622.25;4948355;28;20452;-75
2023/11/17 03:11:50;;;;;;;11.10;7.37;;;5.20;99.90;;;4.01;100.00;97629.25;4946365;28;20450;-75
2023/11/17 03:14:18;;;;;;;13.10;8.07;;;5.20;99.90;;;4.24;100.00;97630.03;4945942;28;20461;-75
2023/11/17 03:16:49;;;;;;;10.70;8.37;;;5.20;99.90;;;4.02;100.00;97631.78;4945145;28;20549;-74
2023/11/17 03:19:17;;;;;;;11.50;7.60;;;5.20;99.90;;;3.99;100.00;97628.63;4947350;28;20493;-76
2023/11/17 03:21:45;;;;;;;12.97;8.03;;;5.20;99.90;;;4.01;100.00;97635.47;4944684;28;20480;-76
2023/11/17 03:24:17;;;;;;;10.70;8.30;;;5.10;99.90;;;4.07;100.00;97639.25;4944901;28;20458;-75
2023/11/17 03:26:45;;;;;;;11.70;7.13;;;5.20;99.90;;;4.03;100.00;97648.66;4949936;28;20493;-75
2023/11/17 03:29:14;;;;;;;11.47;7.57;;;5.20;99.90;;;3.90;100.00;97638.56;4946602;29;20527;-75
2023/11/17 03:31:47;;;;;;;10.43;7.60;;;5.10;99.90;;;3.92;100.00;97661.44;4949725;28;20561;-74
2023/11/17 03:34:18;;;;;;;10.27;8.33;;;5.10;99.90;;;3.98;100.00;97667.91;4949571;28;20806;-75
2023/11/17 03:36:45;;;;;;;10.50;7.00;;;5.10;99.90;;;4.12;100.00;97663.59;4949290;28;20469;-74
2023/11/17 03:39:13;;;;;;;9.87;7.47;;;5.20;99.90;;;4.02;100.00;97658.50;4960664;28;20480;-75
2023/11/17 03:41:41;;;;;;;12.40;7.30;;;5.20;99.90;;;4.01;100.00;97666.69;4954229;28;20475;-76
2023/11/17 03:44:09;;;;;;;12.03;8.20;;;5.20;99.90;;;4.01;100.00;97667.53;4954111;28;20468;-76
2023/11/17 03:46:36;;;;;;;12.77;8.30;;;5.10;99.90;;;4.06;100.00;97664.31;4955797;28;20486;-75
2023/11/17 03:49:06;;;;;;;10.00;7.50;;;5.20;99.90;;;4.05;100.00;97670.69;4954065;28;20540;-77
2023/11/17 03:51:35;;;;;;;13.47;8.80;;;5.20;99.90;;;4.00;100.00;97675.72;4952118;28;20503;-77
2023/11/17 03:54:05;;;;;;;10.97;8.67;;;5.20;99.90;;;3.97;100.00;97668.94;4951778;28;21014;-77
2023/11/17 03:56:32;;;;;;;10.87;8.77;;;5.20;99.90;;;4.11;100.00;97676.13;4949422;28;20469;-77
2023/11/17 03:59:00;;;;;;;14.93;8.30;;;5.20;99.90;;;4.01;100.00;97678.22;4950380;28;20464;-79
2023/11/17 04:01:27;;;;;;;13.80;8.57;;;5.20;99.90;;;4.05;100.00;97689.41;4948097;28;20826;-75
2023/11/17 04:03:54;;;;;;;13.30;9.23;;;5.20;99.90;;;3.63;100.00;97622.09;4949812;28;20455;-75
2023/11/17 04:06:22;;;;;;;11.37;8.43;;;5.20;99.90;;;3.88;100.00;97675.34;4949317;28;20480;-76
2023/11/17 04:08:50;;;;;;;16.30;7.80;;;5.20;99.90;;;4.16;100.00;97699.63;4951142;28;20464;-76
2023/11/17 04:11:18;;;;;;;14.43;10.23;;;5.20;99.90;;;4.20;100.00;97705.47;4951144;28;20515;-77
2023/11/17 04:13:46;;;;;;;12.93;9.17;;;5.30;99.90;;;4.19;100.00;97701.97;4950955;28;20455;-77
2023/11/17 04:16:13;;;;;;;12.83;9.43;;;5.30;99.90;;;3.40;100.00;97605.09;4966018;28;20452;-77
2023/11/17 04:18:41;;;;;;;14.43;10.70;;;5.30;99.90;;;4.08;100.00;97710.41;4950814;28;20473;-77
2023/11/17 04:21:10;;;;;;;15.50;9.37;;;5.20;99.90;;;4.02;100.00;97721.81;4945738;29;20988;-75
2023/11/17 04:23:37;;;;;;;13.70;10.40;;;5.30;99.90;;;4.06;100.00;97725.81;4945969;28;20826;-76
2023/11/17 04:26:06;;;;;;;13.70;9.40;;;5.20;99.90;;;4.10;100.00;97733.31;4950357;29;20461;-77
2023/11/17 04:28:33;;;;;;;14.87;10.53;;;5.30;99.90;;;4.14;100.00;97733.75;4951778;28;20453;-77
2023/11/17 04:31:00;;;;;;;16.07;10.80;;;5.30;99.90;;;4.00;100.00;97713.16;4948728;28;20446;-77
2023/11/17 04:33:27;;;;;;;15.27;10.73;;;5.30;99.90;;;4.19;100.00;97744.75;4950687;28;20462;-77
2023/11/17 04:35:54;;;;;;;15.43;9.90;;;5.30;99.90;;;4.33;100.00;97742.28;4959927;28;20561;-73
2023/11/17 04:38:21;;;;;;;16.23;11.57;;;5.30;99.90;;;4.21;100.00;97749.91;4950865;29;20865;-77
2023/11/17 04:40:49;;;;;;;15.13;10.90;;;5.30;99.90;;;4.36;100.00;97750.75;4950838;28;20520;-78
2023/11/17 04:43:18;;;;;;;16.33;11.27;;;5.30;99.90;;;4.27;100.00;97748.34;4944965;28;20948;-76
2023/11/17 04:45:45;;;;;;;15.77;11.10;;;5.30;99.90;;;4.26;100.00;97763.59;4944949;28;20465;-75
2023/11/17 04:48:13;;;;;;;14.27;12.17;;;5.30;99.90;;;3.72;100.00;97684.34;4950052;28;20489;-77
2023/11/17 04:50:41;;;;;;;15.23;11.27;;;5.30;99.90;;;4.17;100.00;97761.97;4951296;28;20455;-76
2023/11/17 04:53:09;;;;;;;21.30;12.50;;;5.30;99.90;;;4.12;100.00;97781.25;4940117;28;20461;-77
2023/11/17 04:55:36;;;;;;;15.50;10.37;;;5.30;99.90;;;4.16;100.00;97781.72;4951436;28;20465;-77
2023/11/17 04:58:04;;;;;;;16.30;12.23;;;5.30;99.90;;;4.12;100.00;97786.59;4952216;28;20456;-77
2023/11/17 05:00:33;;;;;;;18.40;12.30;;;5.30;99.90;;;4.15;100.00;97782.72;4950124;28;20464;-75
2023/11/17 05:03:01;;;;;;;19.73;11.27;;;5.30;99.90;;;4.15;100.00;97788.91;4950876;28;20464;-77
2023/11/17 05:05:29;;;;;;;16.17;11.90;;;5.30;99.90;;;4.19;100.00;97778.69;4950236;28;20461;-78
2023/11/17 05:07:59;;;;;;;16.23;11.37;;;5.30;99.90;;;3.49;100.00;97685.19;4951928;28;20484;-78
2023/11/17 05:10:26;;;;;;;16.50;12.40;;;5.30;99.90;;;3.83;100.00;97740.03;4957736;28;20468;-74
2023/11/17 05:12:54;;;;;;;17.20;12.20;;;5.40;99.90;;;4.21;100.00;97790.88;4956691;28;20456;-78
2023/11/17 05:15:22;;;;;;;22.13;12.80;;;5.30;99.90;;;4.07;100.00;97778.28;4959992;28;20515;-76
2023/11/17 05:17:51;;;;;;;17.00;13.00;;;5.40;99.90;;;4.33;100.00;97796.59;4954552;28;21017;-74
2023/11/17 05:20:22;;;;;;;17.10;12.43;;;5.40;99.90;;;3.84;100.00;97744.34;4955842;28;20467;-76
2023/11/17 05:22:52;;;;;;;17.63;12.63;;;5.40;99.90;;;4.42;100.00;97812.59;4950455;28;20539;-77
2023/11/17 05:25:20;;;;;;;16.67;12.70;;;5.50;99.90;;;4.41;100.00;97822.44;4950997;28;20463;-77
2023/11/17 05:27:48;;;;;;;15.73;11.80;;;5.40;99.90;;;4.25;100.00;97824.25;4952957;28;20489;-76
2023/11/17 05:30:18;;;;;;;19.03;12.40;;;5.40;99.90;;;4.29;100.00;97821.22;4954957;28;20452;-75
2023/11/17 05:32:46;;;;;;;17.87;12.23;;;5.40;99.90;;;4.23;100.00;97830.78;4968411;28;20483;-79
2023/11/17 05:35:14;;;;;;;17.77;12.67;;;5.40;99.90;;;4.31;100.00;97827.22;4947781;28;20450;-79
2023/11/17 05:37:42;;;;;;;28.53;13.17;;;5.40;99.90;;;4.37;100.00;97832.69;4949293;29;20559;-79
2023/11/17 05:40:10;;;;;;;18.80;12.23;;;5.30;99.90;;;4.23;100.00;97820.94;4950241;28;20465;-79
2023/11/17 05:42:37;;;;;;;14.73;11.13;;;5.30;99.90;;;4.33;100.00;97831.38;4948515;29;20458;-77
2023/11/17 05:45:06;;;;;;;16.90;11.83;;;5.30;99.90;;;4.12;100.00;97840.06;4950046;29;20457;-77
2023/11/17 05:47:34;;;;;;;20.60;13.50;;;5.20;99.90;;;4.04;100.00;97837.47;4947543;28;20985;-77
2023/11/17 05:50:03;;;;;;;19.70;12.03;;;5.20;99.90;;;4.12;100.00;97853.44;4964612;28;20468;-77
2023/11/17 05:52:32;;;;;;;17.47;11.57;;;5.20;99.90;;;4.14;100.00;97856.75;4952945;28;20947;-77
2023/11/17 05:54:59;;;;;;;19.00;12.50;;;5.20;99.90;;;4.07;100.00;97853.16;4938691;28;20495;-69
2023/11/17 05:57:26;;;;;;;18.40;12.30;;;5.20;99.90;;;4.18;100.00;97855.41;4945487;28;20464;-69
2023/11/17 05:59:56;;;;;;;22.87;13.23;;;5.20;99.90;;;4.30;100.00;97861.16;4948454;28;20994;-68
2023/11/17 06:02:27;;;;;;;22.73;13.43;;;5.30;99.90;;;4.33;100.00;97860.81;4943447;28;20458;-72
2023/11/17 06:04:54;;;;;;;15.53;11.73;;;5.20;99.90;;;4.24;100.00;97861.88;4944621;28;20456;-71
2023/11/17 06:07:22;;;;;;;17.50;12.30;;;5.20;99.90;;;4.20;100.00;97866.75;4947754;29;20493;-71
2023/11/17 06:09:51;;;;;;;18.13;13.20;;;5.10;99.90;;;4.15;100.00;97866.44;4949668;28;20462;-70
2023/11/17 06:12:18;;;;;;;17.67;12.00;;;5.10;99.90;;;3.92;100.00;97883.31;4947277;28;20518;-70
2023/11/17 06:14:45;;;;;;;17.00;13.10;;;5.10;99.90;;;3.94;100.00;97886.63;4947443;28;20456;-71
2023/11/17 06:17:13;;;;;;;16.90;11.97;;;5.10;99.90;;;3.91;100.00;97884.31;4947995;28;20464;-70
2023/11/17 06:19:40;;;;;;;16.63;11.33;;;5.10;99.90;;;3.99;100.00;97888.78;4949635;28;20549;-70
2023/11/17 06:22:08;;;;;;;16.27;11.60;;;5.10;99.90;;;4.09;100.00;97904.59;4950102;28;20461;-69
2023/11/17 06:24:35;;;;;;;16.03;12.50;;;5.20;99.90;;;4.08;100.00;97900.25;4948694;28;20528;-73
2023/11/17 06:27:07;;;;;;;17.60;11.50;;;5.20;99.90;;;4.16;100.00;97904.72;4952181;28;20488;-72
2023/11/17 06:29:34;;;;;;;18.50;12.60;;;5.30;99.90;;;4.42;100.00;97909.72;4950734;28;20512;-70
2023/11/17 06:32:02;;;;;;;14.80;10.77;;;5.50;99.90;;;4.33;100.00;97914.31;4949279;28;20465;-73
2023/11/17 06:34:30;;;;;;;15.17;10.80;;;5.40;98.50;;;4.36;100.00;97915.81;4950020;28;20479;-71
2023/11/17 06:37:00;;;;;;;13.03;9.77;;;5.50;97.50;;;4.68;100.00;97921.91;4960507;28;20813;-76
2023/11/17 06:39:29;;;;;;;12.33;9.50;;;5.60;97.10;;;4.96;100.00;97914.13;4944645;28;20488;-74
2023/11/17 06:41:56;;;;;;;14.60;9.60;;;5.70;96.90;;;4.85;100.00;97927.94;4948263;29;20457;-73
2023/11/17 06:44:26;;;;;;;17.47;9.60;;;5.80;94.80;;;4.78;100.00;97930.53;4941523;28;20493;-72
2023/11/17 06:46:53;;;;;;;10.17;7.97;;;5.70;93.80;;;4.61;100.00;97935.19;4941264;28;20473;-74
2023/11/17 06:49:22;;;;;;;15.67;9.80;;;5.60;92.70;;;4.67;100.00;97928.28;4957915;28;22206;-76
2023/11/17 06:51:51;;;;;;;11.87;9.10;;;5.50;93.40;;;4.68;100.00;97935.28;4962798;28;20478;-77
2023/11/17 06:54:21;;;;;;;9.80;7.60;;;5.60;93.00;;;4.61;100.00;97935.19;4951317;28;20555;-72
2023/11/17 06:56:48;;;;;;;10.57;8.07;;;5.50;92.60;;;4.50;99.87;97944.47;4946114;28;20544;-73
2023/11/17 06:59:18;;;;;;;7.90;6.67;;;5.50;91.90;;;4.37;99.57;97944.22;4944720;28;20461;-72
2023/11/17 07:01:49;;;;;;;9.27;6.93;;;5.40;91.40;;;4.24;99.60;97956.31;4953807;28;20509;-74
2023/11/17 07:04:16;;;;;;;9.47;7.13;;;5.30;91.20;;;4.15;100.00;97951.19;4959901;28;20540;-72
2023/11/17 07:06:44;;;;;;;9.00;6.90;;;5.30;91.50;;;4.07;100.00;97960.09;4945144;28;20504;-72
2023/11/17 07:09:16;;;;;;;11.20;6.97;;;5.20;91.40;;;4.13;100.00;97959.38;4944741;28;20554;-73
2023/11/17 07:11:45;;;;;;;13.50;8.13;;;5.20;91.30;;;4.30;99.15;97965.50;4946308;28;20511;-72
2023/11/17 07:14:12;;;;;;;12.47;6.80;;;5.20;91.60;;;4.15;98.22;97964.56;4935058;28;20543;-71
2023/11/17 07:16:41;;;;;;;10.30;7.07;;;5.10;91.20;;;4.37;100.00;97969.09;4945125;28;20493;-73
2023/11/17 07:19:10;;;;;;;8.60;7.33;;;5.10;92.30;;;4.07;98.96;97971.63;4944409;28;20491;-72
2023/11/17 07:21:39;;;;;;;8.10;6.43;;;5.20;91.30;;;3.53;99.06;97919.75;4942938;28;20470;-73
2023/11/17 07:24:10;;;;;;;12.40;6.90;;;5.20;90.90;;;4.14;100.00;97982.44;4947292;29;20473;-72
2023/11/17 07:26:37;;;;;;;10.93;7.63;;;5.20;91.30;;;3.43;99.15;97891.56;4945190;28;20462;-72
2023/11/17 07:29:06;;;;;;;12.33;7.27;;;5.10;91.00;;;3.93;99.05;97991.91;4944725;28;20575;-70
2023/11/17 07:31:37;;;;;;;9.13;7.40;;;5.10;90.60;;;4.22;100.00;97990.44;4959383;28;20454;-71
2023/11/17 07:34:07;;;;;;;11.43;8.60;;;5.20;91.70;;;4.06;97.96;97996.69;4949077;28;20894;-74
2023/11/17 07:36:37;;;;;;;12.10;8.13;;;5.20;90.60;;;3.88;98.04;97974.72;4961081;28;20464;-80
2023/11/17 07:39:04;;;;;;;8.93;7.20;;;5.20;90.50;;;4.21;97.10;97999.47;4962371;28;20763;-72
2023/11/17 07:41:31;;;;;;;10.00;7.97;;;5.10;90.40;;;4.27;96.36;98005.13;4956916;28;20563;-71
2023/11/17 07:43:59;;;;;;;15.03;8.03;;;5.20;90.40;;;4.30;96.71;98010.97;4948218;28;20440;-70
2023/11/17 07:46:27;;;;;;;9.87;7.37;;;5.20;90.50;;;4.28;96.00;98006.78;4945941;28;20513;-71
2023/11/17 07:48:54;;;;;;;9.40;6.83;;;5.20;90.10;;;4.36;95.11;98004.91;4946485;28;20487;-72
2023/11/17 07:51:22;;;;;;;12.93;7.17;;;5.20;90.10;;;4.33;94.36;98007.94;4947402;28;20449;-72
2023/11/17 07:53:51;;;;;;;10.40;7.73;;;5.20;90.00;;;4.35;94.91;98018.47;4947304;28;20450;-72
2023/11/17 07:56:19;;;;;;;10.53;7.23;;;5.10;90.00;;;4.35;94.91;98021.13;4943067;28;21057;-71
2023/11/17 07:58:48;;;;;;;10.10;7.73;;;5.20;90.10;;;4.32;95.71;98005.41;4951100;29;21160;-72
2023/11/17 08:01:17;;;;;;;13.70;8.13;;;5.20;90.30;;;4.50;94.65;98034.59;4946662;28;20460;-73
2023/11/17 08:03:46;;;;;;;11.20;8.23;;;5.30;90.10;;;4.31;96.14;98047.41;4949170;28;21025;-72
2023/11/17 08:06:13;;;;;;;14.13;9.20;;;5.30;90.10;;;4.58;95.37;98014.97;4945996;28;20472;-72
2023/11/17 08:08:41;;;;;;;14.13;8.33;;;5.40;90.40;;;4.27;96.16;98039.88;4948644;28;20938;-72
2023/11/17 08:11:11;;;;;;;11.77;8.30;;;5.40;90.00;;;4.30;97.42;98037.72;4944062;28;20469;-73
2023/11/17 08:13:38;;;;;;;12.33;8.00;;;5.40;90.20;;;4.41;96.94;98047.19;4950435;28;20956;-73
2023/11/17 08:16:07;;;;;;;12.73;8.67;;;5.50;90.20;;;4.41;96.82;98041.00;4939587;29;20453;-70
2023/11/17 08:18:36;;;;;;;11.70;8.50;;;5.40;90.00;;;4.62;95.22;98048.41;4949730;28;20457;-71
2023/11/17 08:21:05;;;;;;;12.10;8.47;;;5.60;90.00;;;4.63;95.18;98044.75;4955460;28;20453;-71
2023/11/17 08:23:32;;;;;;;15.87;8.30;;;5.70;89.40;;;4.65;95.17;98042.72;4952061;28;20467;-73
2023/11/17 08:26:00;;;;;;;9.47;7.90;;;5.70;89.60;;;4.79;95.26;98049.97;4948264;28;20458;-72
2023/11/17 08:28:29;;;;;;;12.03;8.40;;;5.80;89.60;;;4.85;93.27;98058.31;4948343;28;20466;-71
2023/11/17 08:30:57;;;;;;;10.80;7.90;;;5.90;88.40;;;4.90;94.55;98055.91;4949569;28;20556;-70
2023/11/17 08:33:25;;;;;;;11.00;8.43;;;5.90;89.00;;;4.66;93.19;98055.91;4950123;28;20548;-71
2023/11/17 08:35:53;;;;;;;11.93;7.93;;;5.80;87.40;;;4.37;94.14;98013.78;4950050;28;21003;-72
2023/11/17 08:38:21;;;;;;;10.13;7.60;;;5.70;87.90;;;4.49;93.27;98060.53;4949981;28;20449;-72
2023/11/17 08:40:52;;;;;;;11.50;7.10;;;5.60;87.10;;;4.49;93.51;98049.81;4949931;28;20552;-72
2023/11/17 08:43:21;;;;;;;11.30;8.47;;;5.60;87.30;;;4.52;93.31;98054.81;4951719;28;21009;-72
2023/11/17 08:45:52;;;;;;;10.47;7.87;;;5.60;87.20;;;4.52;92.26;98057.50;4945792;28;20520;-72
2023/11/17 08:48:20;;;;;;;8.50;7.23;;;5.60;86.90;;;4.50;91.74;98046.13;4951323;28;20998;-73
2023/11/17 08:50:47;;;;;;;7.57;6.77;;;5.60;86.40;;;4.37;90.85;98067.28;4951811;28;20484;-71
2023/11/17 08:53:14;;;;;;;12.80;7.80;;;5.60;85.50;;;4.40;91.22;98072.28;4951082;28;20479;-72
2023/11/17 08:55:42;;;;;;;8.23;6.73;;;5.50;85.70;;;4.41;91.26;98078.47;4950350;28;20452;-71
2023/11/17 08:58:10;;;;;;;9.47;7.47;;;5.50;85.80;;;4.53;91.68;98085.91;4950015;28;20472;-73
2023/11/17 09:00:37;;;;;;;7.30;6.57;;;5.60;86.00;;;4.64;90.45;98084.69;4951409;28;20473;-72
2023/11/17 09:03:06;;;;;;;10.13;7.97;;;5.70;85.80;;;4.63;89.13;98093.72;4947946;29;20454;-71
2023/11/17 09:05:33;;;;;;;7.53;6.53;;;5.70;84.60;;;4.66;87.29;98090.69;4949008;28;20806;-71
2023/11/17 09:08:01;;;;;;;9.53;6.87;;;5.70;83.90;;;4.96;85.10;98085.50;4949478;28;20501;-71
2023/11/17 09:10:28;;;;;;;7.90;6.93;;;5.80;83.40;;;5.10;84.06;98099.13;4951846;28;20464;-73
2023/11/17 09:12:55;;;;;;;8.47;6.77;;;5.90;82.70;;;4.80;82.98;98113.22;4947249;28;20459;-72
2023/11/17 09:15:24;;;;;;;7.77;5.97;;;5.90;81.70;;;4.71;84.28;98100.88;4948857;29;20532;-70
2023/11/17 09:17:52;;;;;;;8.47;6.20;;;5.90;81.70;;;4.64;84.08;98107.97;4950172;28;20547;-71
2023/11/17 09:20:22;;;;;;;8.23;7.03;;;5.80;81.30;;;4.56;83.86;98110.66;4950737;28;20474;-69
2023/11/17 09:22:51;;;;;;;9.63;6.30;;;5.70;81.00;;;4.52;84.85;98105.66;4949416;28;20468;-72
2023/11/17 09:25:22;;;;;;;13.57;6.50;;;5.70;81.40;;;4.61;82.83;98113.63;4948540;28;20465;-71
2023/11/17 09:27:52;;;;;;;9.10;6.80;;;5.70;80.90;;;4.50;83.20;98123.75;4949089;28;20460;-70
2023/11/17 09:30:19;;;;;;;11.00;6.20;;;5.70;80.70;;;4.75;83.45;98115.56;4949882;28;20559;-71
2023/11/17 09:32:51;;;;;;;8.57;6.53;;;5.80;81.30;;;4.70;82.20;98115.28;4946862;28;20512;-72
2023/11/17 09:35:21;;;;;;;6.80;6.10;;;5.80;80.40;;;4.58;82.49;98122.03;4950226;28;20484;-72
2023/11/17 09:37:50;;;;;;;8.13;4.90;;;5.70;80.10;;;4.43;79.68;98116.56;4949985;28;20458;-71
2023/11/17 09:40:20;;;;;;;5.53;5.00;;;5.60;78.80;;;4.47;80.90;98126.75;4950714;28;20456;-71
2023/11/17 09:42:52;;;;;;;7.43;5.03;;;5.60;79.30;;;4.49;80.72;98130.09;4948911;28;20859;-72
2023/11/17 09:45:21;;;;;;;7.90;5.70;;;5.60;79.50;;;4.47;80.89;98126.75;4949884;28;20569;-71
2023/11/17 09:47:53;;;;;;;12.30;6.03;;;5.60;79.50;;;4.61;82.08;98127.00;4946407;28;20457;-72
2023/11/17 09:50:23;;;;;;;6.53;5.63;;;5.70;80.00;;;4.51;82.11;98132.59;4945239;28;21036;-71
2023/11/17 09:52:52;;;;;;;7.63;6.37;;;5.70;79.70;;;4.51;82.09;98116.53;4947877;28;20469;-72
2023/11/17 09:55:22;;;;;;;6.73;5.57;;;5.70;80.20;;;4.69;81.21;98124.31;4948507;28;20542;-73
2023/11/17 09:57:53;;;;;;;8.40;7.13;;;5.80;80.00;;;4.75;81.79;98115.56;4949442;28;20579;-71
2023/11/17 10:00:22;;;;;;;6.63;5.93;;;5.80;80.20;;;4.90;80.93;98122.84;4937383;29;20546;-71
2023/11/17 10:02:55;;;;;;;11.60;7.10;;;5.90;79.80;;;5.21;80.75;98124.66;4944139;28;20462;-73
2023/11/17 10:05:26;;;;;;;7.03;6.33;;;6.10;79.80;;;5.10;79.99;98078.56;4943632;28;20494;-73
2023/11/17 10:07:56;;;;;;;6.70;5.83;;;6.30;79.80;;;5.44;77.71;98134.56;4946388;28;20497;-72
2023/11/17 10:10:26;;;;;;;9.40;5.10;;;6.40;78.60;;;5.49;76.33;98122.28;4944084;29;20512;-72
2023/11/17 10:12:58;;;;;;;6.90;5.40;;;6.40;78.20;;;5.44;77.98;98129.19;4946866;29;20480;-72
2023/11/17 10:15:28;;;;;;;6.90;5.73;;;6.50;78.40;;;5.52;77.59;98134.47;4947258;28;20461;-74
2023/11/17 10:18:01;;;;;;;5.37;4.87;;;6.60;78.00;;;5.38;76.56;98131.59;4945830;28;20461;-73
2023/11/17 10:20:31;;;;;;;10.13;6.27;;;6.60;77.20;;;5.47;77.44;98139.56;4940413;28;20462;-70
2023/11/17 10:22:59;;;;;;;8.17;4.90;;;6.50;77.70;;;5.36;76.75;98136.28;4948801;29;20534;-73
2023/11/17 10:25:29;;;;;;;6.77;5.50;;;6.50;77.40;;;5.51;76.31;98143.53;4949211;28;20462;-71
2023/11/17 10:27:58;;;;;;;6.83;6.10;;;6.60;77.50;;;5.86;75.59;98143.94;4943810;28;20470;-72
2023/11/17 10:30:30;;;;;;;7.03;6.40;;;6.60;77.40;;;5.36;76.30;98082.69;4961544;28;20497;-72